sensor_id;sensor_type;location;lat;lon;timestamp;P1;durP1;ratioP1;P2;durP2;ratioP2
22094;SDS011;24083;55.670;37.568;2024-01-30T01:02:03;10.43;;;5.50;;
22094;SDS011;24083;55.670;37.568;2024-01-30T01:04:29;10.00;;;6.15;;
22094;SDS011;24083;55.670;37.568;2024-01-30T01:06:56;7.80;;;4.78;;
22094;SDS011;24083;55.670;37.568;2024-01-30T01:09:37;7.03;;;5.05;;
22094;SDS011;24083;55.670;37.568;2024-01-30T01:18:32;7.38;;;3.97;;
22094;SDS011;24083;55.670;37.568;2024-01-30T01:20:58;8.32;;;5.05;;
22094;SDS011;24083;55.670;37.568;2024-01-30T01:24:15;10.02;;;6.28;;
22094;SDS011;24083;55.670;37.568;2024-01-30T01:51:06;10.82;;;4.10;;
22094;SDS011;24083;55.670;37.568;2024-01-30T01:53:44;10.85;;;6.50;;
22094;SDS011;24083;55.670;37.568;2024-01-30T01:59:05;8.20;;;4.80;;
22094;SDS011;24083;55.670;37.568;2024-01-30T02:01:32;10.27;;;5.53;;
22094;SDS011;24083;55.670;37.568;2024-01-30T02:06:50;7.10;;;4.13;;
22094;SDS011;24083;55.670;37.568;2024-01-30T02:09:15;7.90;;;5.30;;
22094;SDS011;24083;55.670;37.568;2024-01-30T02:11:59;9.40;;;6.53;;
22094;SDS011;24083;55.670;37.568;2024-01-30T02:14:25;9.55;;;3.97;;
22094;SDS011;24083;55.670;37.568;2024-01-30T02:16:51;8.25;;;5.75;;
22094;SDS011;24083;55.670;37.568;2024-01-30T02:19:29;6.60;;;3.88;;
22094;SDS011;24083;55.670;37.568;2024-01-30T02:32:17;10.50;;;6.88;;
22094;SDS011;24083;55.670;37.568;2024-01-30T02:38:22;11.50;;;5.45;;
22094;SDS011;24083;55.670;37.568;2024-01-30T02:44:08;10.82;;;6.30;;
22094;SDS011;24083;55.670;37.568;2024-01-30T02:55:19;10.10;;;6.07;;
22094;SDS011;24083;55.670;37.568;2024-01-30T03:00:27;8.65;;;6.00;;
22094;SDS011;24083;55.670;37.568;2024-01-30T03:17:53;6.70;;;4.07;;
22094;SDS011;24083;55.670;37.568;2024-01-30T03:20:27;13.88;;;9.32;;
22094;SDS011;24083;55.670;37.568;2024-01-30T03:22:56;8.82;;;5.35;;
22094;SDS011;24083;55.670;37.568;2024-01-30T03:25:28;12.48;;;7.30;;
22094;SDS011;24083;55.670;37.568;2024-01-30T03:27:54;8.82;;;5.10;;
22094;SDS011;24083;55.670;37.568;2024-01-30T03:30:20;8.88;;;5.43;;
22094;SDS011;24083;55.670;37.568;2024-01-30T03:32:45;12.57;;;7.63;;
22094;SDS011;24083;55.670;37.568;2024-01-30T03:35:11;8.77;;;4.90;;
22094;SDS011;24083;55.670;37.568;2024-01-30T03:37:40;10.15;;;6.68;;
22094;SDS011;24083;55.670;37.568;2024-01-30T03:40:05;8.27;;;5.05;;
22094;SDS011;24083;55.670;37.568;2024-01-30T03:42:34;7.28;;;3.92;;
22094;SDS011;24083;55.670;37.568;2024-01-30T03:45:00;12.88;;;6.68;;
22094;SDS011;24083;55.670;37.568;2024-01-30T03:47:25;9.13;;;5.63;;
22094;SDS011;24083;55.670;37.568;2024-01-30T03:49:51;9.68;;;6.47;;
22094;SDS011;24083;55.670;37.568;2024-01-30T03:52:17;8.45;;;5.45;;
22094;SDS011;24083;55.670;37.568;2024-01-30T03:54:42;12.30;;;7.03;;
22094;SDS011;24083;55.670;37.568;2024-01-30T03:57:08;8.40;;;5.40;;
22094;SDS011;24083;55.670;37.568;2024-01-30T03:59:34;8.45;;;5.95;;
22094;SDS011;24083;55.670;37.568;2024-01-30T04:01:59;10.98;;;7.10;;
22094;SDS011;24083;55.670;37.568;2024-01-30T04:04:25;7.13;;;4.18;;
22094;SDS011;24083;55.670;37.568;2024-01-30T04:06:51;8.88;;;5.57;;
22094;SDS011;24083;55.670;37.568;2024-01-30T04:09:17;7.68;;;5.03;;
22094;SDS011;24083;55.670;37.568;2024-01-30T04:11:42;9.30;;;6.15;;
22094;SDS011;24083;55.670;37.568;2024-01-30T04:14:08;7.22;;;4.28;;
22094;SDS011;24083;55.670;37.568;2024-01-30T04:16:34;5.85;;;3.38;;
22094;SDS011;24083;55.670;37.568;2024-01-30T04:19:00;7.22;;;3.60;;
22094;SDS011;24083;55.670;37.568;2024-01-30T04:21:25;9.60;;;4.00;;
22094;SDS011;24083;55.670;37.568;2024-01-30T04:23:51;8.25;;;5.15;;
22094;SDS011;24083;55.670;37.568;2024-01-30T04:26:17;14.55;;;8.40;;
22094;SDS011;24083;55.670;37.568;2024-01-30T04:28:44;6.07;;;3.45;;
22094;SDS011;24083;55.670;37.568;2024-01-30T04:31:15;10.48;;;5.38;;
22094;SDS011;24083;55.670;37.568;2024-01-30T04:33:41;11.60;;;6.97;;
22094;SDS011;24083;55.670;37.568;2024-01-30T04:36:08;12.75;;;6.45;;
22094;SDS011;24083;55.670;37.568;2024-01-30T04:38:36;8.07;;;4.45;;
22094;SDS011;24083;55.670;37.568;2024-01-30T04:41:03;8.77;;;5.38;;
22094;SDS011;24083;55.670;37.568;2024-01-30T04:43:29;7.35;;;4.45;;
22094;SDS011;24083;55.670;37.568;2024-01-30T04:49:28;8.68;;;5.57;;
22094;SDS011;24083;55.670;37.568;2024-01-30T04:51:55;11.27;;;5.60;;
22094;SDS011;24083;55.670;37.568;2024-01-30T04:54:21;11.10;;;6.25;;
22094;SDS011;24083;55.670;37.568;2024-01-30T04:56:47;10.75;;;6.65;;
22094;SDS011;24083;55.670;37.568;2024-01-30T04:59:13;11.32;;;4.65;;
22094;SDS011;24083;55.670;37.568;2024-01-30T05:01:40;9.10;;;3.63;;
22094;SDS011;24083;55.670;37.568;2024-01-30T05:04:09;6.70;;;4.10;;
22094;SDS011;24083;55.670;37.568;2024-01-30T05:09:26;8.13;;;5.07;;
22094;SDS011;24083;55.670;37.568;2024-01-30T05:11:51;7.75;;;4.70;;
22094;SDS011;24083;55.670;37.568;2024-01-30T05:14:18;6.93;;;4.70;;
22094;SDS011;24083;55.670;37.568;2024-01-30T05:16:43;10.25;;;5.53;;
22094;SDS011;24083;55.670;37.568;2024-01-30T05:19:13;8.88;;;3.85;;
22094;SDS011;24083;55.670;37.568;2024-01-30T05:21:39;7.78;;;4.00;;
22094;SDS011;24083;55.670;37.568;2024-01-30T05:24:05;10.77;;;7.05;;
22094;SDS011;24083;55.670;37.568;2024-01-30T05:26:30;9.50;;;6.53;;
22094;SDS011;24083;55.670;37.568;2024-01-30T05:28:56;8.77;;;5.28;;
22094;SDS011;24083;55.670;37.568;2024-01-30T05:31:22;6.50;;;3.40;;
22094;SDS011;24083;55.670;37.568;2024-01-30T05:33:48;7.47;;;4.70;;
22094;SDS011;24083;55.670;37.568;2024-01-30T05:36:15;7.15;;;4.63;;
22094;SDS011;24083;55.670;37.568;2024-01-30T05:38:40;9.25;;;5.95;;
22094;SDS011;24083;55.670;37.568;2024-01-30T05:41:10;7.95;;;4.78;;
22094;SDS011;24083;55.670;37.568;2024-01-30T05:43:36;9.05;;;5.05;;
22094;SDS011;24083;55.670;37.568;2024-01-30T05:46:02;10.25;;;6.70;;
22094;SDS011;24083;55.670;37.568;2024-01-30T05:48:27;11.43;;;5.68;;
22094;SDS011;24083;55.670;37.568;2024-01-30T05:50:53;7.45;;;4.63;;
22094;SDS011;24083;55.670;37.568;2024-01-30T05:53:21;10.63;;;5.45;;
22094;SDS011;24083;55.670;37.568;2024-01-30T05:55:47;7.78;;;3.65;;
22094;SDS011;24083;55.670;37.568;2024-01-30T05:58:12;9.10;;;5.50;;
22094;SDS011;24083;55.670;37.568;2024-01-30T06:03:30;9.05;;;5.18;;
22094;SDS011;24083;55.670;37.568;2024-01-30T06:05:56;7.15;;;2.92;;
22094;SDS011;24083;55.670;37.568;2024-01-30T06:08:22;10.20;;;5.13;;
22094;SDS011;24083;55.670;37.568;2024-01-30T06:10:47;12.40;;;6.97;;
22094;SDS011;24083;55.670;37.568;2024-01-30T06:13:14;11.18;;;5.60;;
22094;SDS011;24083;55.670;37.568;2024-01-30T06:15:40;7.95;;;4.85;;
22094;SDS011;24083;55.670;37.568;2024-01-30T06:18:06;5.50;;;2.60;;
22094;SDS011;24083;55.670;37.568;2024-01-30T06:20:33;13.82;;;7.85;;
22094;SDS011;24083;55.670;37.568;2024-01-30T06:25:44;9.93;;;5.38;;
22094;SDS011;24083;55.670;37.568;2024-01-30T06:28:10;13.63;;;6.93;;
22094;SDS011;24083;55.670;37.568;2024-01-30T06:30:36;9.52;;;5.07;;
22094;SDS011;24083;55.670;37.568;2024-01-30T06:33:02;10.25;;;4.10;;
22094;SDS011;24083;55.670;37.568;2024-01-30T06:35:28;9.88;;;5.05;;
22094;SDS011;24083;55.670;37.568;2024-01-30T06:38:03;11.48;;;7.35;;
22094;SDS011;24083;55.670;37.568;2024-01-30T06:43:17;10.75;;;6.10;;
22094;SDS011;24083;55.670;37.568;2024-01-30T06:45:43;9.40;;;5.88;;
22094;SDS011;24083;55.670;37.568;2024-01-30T06:48:09;10.80;;;6.10;;
22094;SDS011;24083;55.670;37.568;2024-01-30T06:50:35;13.02;;;8.52;;
22094;SDS011;24083;55.670;37.568;2024-01-30T06:53:00;15.88;;;8.40;;
22094;SDS011;24083;55.670;37.568;2024-01-30T06:55:27;11.65;;;6.45;;
22094;SDS011;24083;55.670;37.568;2024-01-30T06:57:53;9.13;;;4.85;;
22094;SDS011;24083;55.670;37.568;2024-01-30T07:00:20;11.82;;;7.05;;
22094;SDS011;24083;55.670;37.568;2024-01-30T07:02:49;16.17;;;8.63;;
22094;SDS011;24083;55.670;37.568;2024-01-30T07:05:15;8.57;;;4.43;;
22094;SDS011;24083;55.670;37.568;2024-01-30T07:07:42;7.03;;;4.05;;
22094;SDS011;24083;55.670;37.568;2024-01-30T07:10:12;16.75;;;8.20;;
22094;SDS011;24083;55.670;37.568;2024-01-30T07:12:38;9.82;;;5.03;;
22094;SDS011;24083;55.670;37.568;2024-01-30T07:15:06;8.40;;;4.35;;
22094;SDS011;24083;55.670;37.568;2024-01-30T07:18:00;9.95;;;4.90;;
22094;SDS011;24083;55.670;37.568;2024-01-30T07:20:26;14.98;;;8.10;;
22094;SDS011;24083;55.670;37.568;2024-01-30T07:22:51;14.10;;;7.53;;
22094;SDS011;24083;55.670;37.568;2024-01-30T07:25:17;12.13;;;6.03;;
22094;SDS011;24083;55.670;37.568;2024-01-30T07:27:43;10.45;;;6.05;;
22094;SDS011;24083;55.670;37.568;2024-01-30T07:33:17;8.60;;;4.90;;
22094;SDS011;24083;55.670;37.568;2024-01-30T07:35:44;6.72;;;3.90;;
22094;SDS011;24083;55.670;37.568;2024-01-30T07:38:15;8.80;;;4.25;;
22094;SDS011;24083;55.670;37.568;2024-01-30T07:43:29;17.70;;;9.05;;
22094;SDS011;24083;55.670;37.568;2024-01-30T08:48:38;13.68;;;8.00;;
22094;SDS011;24083;55.670;37.568;2024-01-30T09:36:02;11.95;;;6.47;;
22094;SDS011;24083;55.670;37.568;2024-01-30T10:09:34;15.57;;;8.85;;
22094;SDS011;24083;55.670;37.568;2024-01-30T10:19:50;18.00;;;8.70;;
22094;SDS011;24083;55.670;37.568;2024-01-30T11:52:33;20.33;;;10.48;;
22094;SDS011;24083;55.670;37.568;2024-01-30T11:56:13;13.90;;;8.18;;
22094;SDS011;24083;55.670;37.568;2024-01-30T11:58:42;7.18;;;3.70;;
22094;SDS011;24083;55.670;37.568;2024-01-30T12:04:03;19.27;;;10.77;;
22094;SDS011;24083;55.670;37.568;2024-01-30T12:06:29;17.65;;;11.05;;
22094;SDS011;24083;55.670;37.568;2024-01-30T12:12:13;19.15;;;9.65;;
22094;SDS011;24083;55.670;37.568;2024-01-30T12:30:09;19.52;;;10.43;;
22094;SDS011;24083;55.670;37.568;2024-01-30T12:32:36;17.35;;;10.25;;
22094;SDS011;24083;55.670;37.568;2024-01-30T12:35:02;16.75;;;8.85;;
22094;SDS011;24083;55.670;37.568;2024-01-30T12:37:32;19.60;;;10.65;;
22094;SDS011;24083;55.670;37.568;2024-01-30T13:19:31;21.08;;;9.80;;
22094;SDS011;24083;55.670;37.568;2024-01-30T13:25:55;18.73;;;10.23;;
22094;SDS011;24083;55.670;37.568;2024-01-30T13:28:38;19.40;;;11.30;;
22094;SDS011;24083;55.670;37.568;2024-01-30T13:33:55;17.95;;;10.23;;
22094;SDS011;24083;55.670;37.568;2024-01-30T13:36:32;12.10;;;7.47;;
22094;SDS011;24083;55.670;37.568;2024-01-30T13:38:58;19.58;;;10.13;;
22094;SDS011;24083;55.670;37.568;2024-01-30T15:51:46;16.20;;;8.55;;
22094;SDS011;24083;55.670;37.568;2024-01-30T15:54:24;23.58;;;11.85;;
22094;SDS011;24083;55.670;37.568;2024-01-30T15:59:48;14.70;;;6.93;;
22094;SDS011;24083;55.670;37.568;2024-01-30T16:02:15;24.92;;;12.25;;
22094;SDS011;24083;55.670;37.568;2024-01-30T16:40:16;26.88;;;13.27;;
22094;SDS011;24083;55.670;37.568;2024-01-30T16:52:26;21.67;;;13.63;;
22094;SDS011;24083;55.670;37.568;2024-01-30T16:57:58;20.98;;;11.70;;
22094;SDS011;24083;55.670;37.568;2024-01-30T17:12:21;23.13;;;11.65;;
22094;SDS011;24083;55.670;37.568;2024-01-30T17:17:44;23.42;;;12.02;;
22094;SDS011;24083;55.670;37.568;2024-01-30T17:20:10;27.35;;;13.43;;
22094;SDS011;24083;55.670;37.568;2024-01-30T17:26:34;28.85;;;10.52;;
22094;SDS011;24083;55.670;37.568;2024-01-30T17:32:54;24.42;;;11.27;;
22094;SDS011;24083;55.670;37.568;2024-01-30T18:16:41;25.08;;;12.65;;
22094;SDS011;24083;55.670;37.568;2024-01-30T18:19:09;21.52;;;8.88;;
22094;SDS011;24083;55.670;37.568;2024-01-30T18:41:34;22.25;;;10.75;;
22094;SDS011;24083;55.670;37.568;2024-01-30T18:44:01;25.52;;;13.32;;
22094;SDS011;24083;55.670;37.568;2024-01-30T19:10:03;33.45;;;17.05;;
22094;SDS011;24083;55.670;37.568;2024-01-30T19:19:26;30.08;;;15.43;;
22094;SDS011;24083;55.670;37.568;2024-01-30T19:32:44;36.85;;;19.00;;
22094;SDS011;24083;55.670;37.568;2024-01-30T19:39:03;36.45;;;17.63;;
22094;SDS011;24083;55.670;37.568;2024-01-30T20:15:27;33.90;;;16.42;;
22094;SDS011;24083;55.670;37.568;2024-01-30T20:17:55;34.80;;;16.73;;
22094;SDS011;24083;55.670;37.568;2024-01-30T20:30:42;30.85;;;13.40;;
22094;SDS011;24083;55.670;37.568;2024-01-30T20:42:15;35.42;;;17.55;;
22094;SDS011;24083;55.670;37.568;2024-01-30T20:44:40;29.80;;;13.95;;
22094;SDS011;24083;55.670;37.568;2024-01-30T21:14:45;34.58;;;15.98;;
22094;SDS011;24083;55.670;37.568;2024-01-30T21:20:34;33.88;;;16.67;;
22094;SDS011;24083;55.670;37.568;2024-01-30T22:28:15;25.55;;;13.88;;
22094;SDS011;24083;55.670;37.568;2024-01-30T23:31:01;31.10;;;15.95;;
22094;SDS011;24083;55.670;37.568;2024-01-30T23:49:03;30.52;;;16.80;;
22094;SDS011;24083;55.670;37.568;2024-01-30T23:54:13;36.95;;;17.15;;
22094;SDS011;24083;55.670;37.568;2024-01-30T23:56:43;33.30;;;17.50;;
